Time;durP1;ratioP1;P1;durP2;ratioP2;P2;SDS_P1;SDS_P2;PMS_P1;PMS_P2;Temp;Humidity;BMP_temperature;BMP_pressure;BME280_temperature;BME280_humidity;BME280_pressure;Samples;Min_cycle;Max_cycle;Signal;HPM_P1;HPM_P2
2023/03/20 00:01:29;;;;;;;71.53;26.07;;;9.50;99.90;;;8.51;100.00;97560.53;4996035;28;20416;-71
2023/03/20 00:03:56;;;;;;;61.60;25.33;;;9.50;99.90;;;8.53;100.00;97574.31;5013722;28;20411;-71
2023/03/20 00:06:24;;;;;;;73.10;24.90;;;9.50;99.90;;;8.56;100.00;97566.97;5013782;28;20471;-71
2023/03/20 00:08:53;;;;;;;58.70;21.83;;;9.50;99.90;;;8.56;100.00;97567.78;5013832;28;20763;-72
2023/03/20 00:11:29;;;;;;;77.97;28.52;;;9.60;99.90;;;8.62;100.00;97561.56;5013504;28;20417;-71
2023/03/20 00:13:58;;;;;;;54.88;21.15;;;9.60;99.90;;;8.56;100.00;97562.50;5013607;28;20405;-71
2023/03/20 00:16:29;;;;;;;47.20;19.48;;;9.60;99.90;;;8.54;100.00;97565.38;5013508;28;20424;-71
2023/03/20 00:18:55;;;;;;;44.85;18.60;;;9.50;99.90;;;8.57;100.00;97560.66;5013457;28;20941;-71
2023/03/20 00:21:21;;;;;;;39.83;17.38;;;9.50;99.90;;;8.49;100.00;97559.97;5013431;28;20405;-72
2023/03/20 00:23:48;;;;;;;36.50;15.80;;;9.50;99.90;;;8.49;100.00;97570.53;5013523;28;20468;-72
2023/03/20 00:26:17;;;;;;;32.30;14.60;;;9.50;99.90;;;8.43;100.00;97563.53;5013444;28;20412;-72
2023/03/20 00:28:45;;;;;;;27.03;13.23;;;9.40;99.90;;;8.40;100.00;97564.03;5013333;28;20500;-72
2023/03/20 00:31:23;;;;;;;28.00;12.68;;;9.30;99.90;;;8.35;100.00;97558.63;5013478;28;20408;-72
2023/03/20 00:33:50;;;;;;;25.23;12.60;;;9.30;99.90;;;8.35;100.00;97563.09;5013456;28;20533;-71
2023/03/20 00:36:16;;;;;;;25.00;12.50;;;9.30;99.90;;;8.26;100.00;97561.84;5013272;28;20917;-72
2023/03/20 00:38:42;;;;;;;23.75;12.30;;;9.20;99.90;;;8.21;100.00;97564.34;5013154;28;20447;-72
2023/03/20 00:41:24;;;;;;;26.15;11.95;;;9.20;99.90;;;8.16;100.00;97565.84;5013265;28;20397;-71
2023/03/20 00:43:54;;;;;;;25.45;12.38;;;9.10;99.90;;;8.07;100.00;97569.88;5011932;28;20409;-72
2023/03/20 00:46:20;;;;;;;23.27;13.18;;;9.10;99.90;;;7.99;100.00;97572.03;5013302;28;20463;-71
2023/03/20 00:48:47;;;;;;;30.05;14.95;;;8.90;99.90;;;7.85;100.00;97573.31;5012981;28;20956;-72
2023/03/20 00:51:14;;;;;;;34.55;16.13;;;8.70;99.90;;;7.87;100.00;97576.53;4995305;28;20462;-72
2023/03/20 00:53:40;;;;;;;36.50;17.00;;;8.70;99.90;;;7.85;100.00;97575.94;5012776;28;20492;-72
2023/03/20 00:56:35;;;;;;;37.75;18.08;;;8.70;99.90;;;7.79;100.00;97575.03;5012920;28;20886;-72
2023/03/20 00:59:02;;;;;;;40.38;18.23;;;8.70;99.90;;;7.78;100.00;97576.84;5012729;28;20408;-71
2023/03/20 01:01:30;;;;;;;47.03;20.08;;;8.70;99.90;;;7.82;100.00;97573.78;5012648;28;20455;-71
2023/03/20 01:03:57;;;;;;;42.08;17.05;;;8.70;99.90;;;7.79;100.00;97577.66;5012776;28;20429;-71
2023/03/20 01:06:24;;;;;;;39.08;17.58;;;8.70;99.90;;;7.81;100.00;97574.81;5012689;28;20404;-71
2023/03/20 01:08:50;;;;;;;43.05;18.63;;;8.70;99.90;;;7.80;100.00;97574.00;4995122;28;20416;-71
2023/03/20 01:11:25;;;;;;;41.77;18.13;;;8.70;99.90;;;7.78;100.00;97570.78;5012498;28;20405;-71
2023/03/20 01:13:51;;;;;;;35.65;15.95;;;8.70;99.90;;;7.75;100.00;97576.50;5012526;28;20416;-71
2023/03/20 01:16:21;;;;;;;42.53;16.67;;;8.70;99.90;;;7.76;100.00;97570.19;5012354;28;20409;-71
2023/03/20 01:18:48;;;;;;;27.90;14.27;;;8.70;99.90;;;7.72;100.00;97574.34;5012351;28;20408;-71
2023/03/20 01:21:14;;;;;;;28.15;13.73;;;8.60;99.90;;;7.69;100.00;97577.41;5012408;28;20394;-71
2023/03/20 01:23:41;;;;;;;28.98;13.35;;;8.60;99.90;;;7.73;100.00;97574.13;5012160;28;20504;-71
2023/03/20 01:26:29;;;;;;;24.88;13.57;;;8.70;99.90;;;7.76;100.00;97572.84;5012456;28;20412;-70
2023/03/20 01:28:55;;;;;;;25.48;12.80;;;8.70;99.90;;;7.77;100.00;97571.81;5012465;28;20412;-71
2023/03/20 01:31:20;;;;;;;28.50;13.95;;;8.70;99.90;;;7.81;100.00;97577.44;5012145;28;20775;-71
2023/03/20 01:33:46;;;;;;;27.17;12.40;;;8.80;99.90;;;7.84;100.00;97575.13;5012084;28;20482;-71
2023/03/20 01:36:16;;;;;;;20.63;11.52;;;8.80;99.90;;;7.88;100.00;97578.94;5012199;28;20431;-70
2023/03/20 01:38:44;;;;;;;26.05;12.60;;;8.90;99.90;;;7.91;100.00;97582.94;5011995;28;20412;-71
2023/03/20 01:41:15;;;;;;;27.67;12.45;;;8.90;99.90;;;7.93;100.00;97581.69;5012064;28;20397;-71
2023/03/20 01:43:43;;;;;;;21.77;10.90;;;9.00;99.90;;;7.95;100.00;97579.63;5011991;28;20938;-71
2023/03/20 01:46:18;;;;;;;24.65;12.07;;;9.00;99.90;;;7.99;100.00;97583.38;5011993;28;20411;-71
2023/03/20 01:49:04;;;;;;;23.70;11.13;;;9.00;99.90;;;8.01;100.00;97578.69;5011869;28;20411;-71
2023/03/20 01:51:31;;;;;;;23.48;11.38;;;9.00;99.90;;;8.05;100.00;97581.66;5011666;28;20459;-71
2023/03/20 01:54:05;;;;;;;29.85;13.15;;;9.10;99.90;;;8.08;100.00;97591.75;5011524;28;20432;-71
2023/03/20 01:56:36;;;;;;;28.33;13.25;;;9.10;99.90;;;8.08;100.00;97600.47;5011764;28;20424;-71
2023/03/20 01:59:09;;;;;;;25.67;12.45;;;9.10;99.90;;;8.08;100.00;97592.56;5011673;28;20451;-71
2023/03/20 02:01:36;;;;;;;34.65;15.35;;;9.10;99.90;;;8.12;100.00;97604.25;5011434;28;20416;-71
2023/03/20 02:04:02;;;;;;;32.80;14.57;;;9.10;99.90;;;8.10;100.00;97610.78;5011625;28;20818;-71
2023/03/20 02:06:28;;;;;;;35.05;15.10;;;9.10;99.90;;;8.04;100.00;97604.59;5011578;28;20480;-71
2023/03/20 02:08:54;;;;;;;23.88;11.93;;;9.00;99.90;;;7.94;100.00;97608.84;5011529;28;20820;-71
2023/03/20 02:11:24;;;;;;;24.10;11.50;;;8.90;99.90;;;7.91;100.00;97614.56;5011510;28;20916;-71
2023/03/20 02:13:53;;;;;;;36.67;13.13;;;8.90;99.90;;;7.97;100.00;97619.72;5011495;28;20405;-71
2023/03/20 02:16:19;;;;;;;28.95;12.95;;;8.90;99.90;;;7.91;100.00;97617.19;5011284;28;20435;-72
2023/03/20 02:18:50;;;;;;;23.63;11.60;;;8.90;99.90;;;7.84;100.00;97614.66;5011333;28;20397;-71
2023/03/20 02:22:17;;;;;;;19.65;10.98;;;8.80;99.90;;;7.61;100.00;97610.16;5011401;28;20404;-71
2023/03/20 02:25:26;;;;;;;16.42;8.40;;;8.50;99.90;;;7.57;100.00;97611.66;5011331;28;20492;-71
2023/03/20 02:28:48;;;;;;;20.92;10.52;;;8.50;99.90;;;7.54;100.00;97606.84;5011216;28;20408;-71
2023/03/20 02:32:03;;;;;;;14.25;7.43;;;8.50;99.90;;;7.56;100.00;97601.34;5010047;28;20855;-72
2023/03/20 02:35:39;;;;;;;10.95;6.03;;;8.50;99.90;;;7.63;100.00;97607.31;5011136;28;20404;-71
2023/03/20 02:38:36;;;;;;;9.93;5.78;;;8.60;99.90;;;7.78;100.00;97610.31;5010096;28;21481;-71
2023/03/20 02:41:14;;;;;;;9.82;5.72;;;8.70;99.90;;;7.78;100.00;97618.22;5011053;28;20495;-71
2023/03/20 02:43:47;;;;;;;8.75;5.05;;;8.70;99.90;;;7.67;100.00;97611.09;5010844;28;20459;-71
2023/03/20 02:46:25;;;;;;;10.15;5.80;;;8.60;99.90;;;7.71;100.00;97612.25;5011047;28;20397;-72
2023/03/20 02:48:56;;;;;;;10.68;5.68;;;8.60;99.90;;;7.64;100.00;97612.34;5010948;28;20499;-71
2023/03/20 02:51:34;;;;;;;8.75;5.13;;;8.60;99.90;;;7.58;100.00;97608.00;5010859;28;20411;-71
2023/03/20 02:54:09;;;;;;;10.90;5.43;;;8.50;99.90;;;7.64;100.00;97609.72;5010922;28;20489;-71
2023/03/20 02:56:48;;;;;;;10.48;5.25;;;8.60;99.90;;;7.69;100.00;97604.56;5010823;28;21495;-71
2023/03/20 02:59:25;;;;;;;10.35;5.70;;;8.70;99.90;;;7.69;100.00;97609.84;5010773;28;20462;-71
2023/03/20 03:01:57;;;;;;;8.40;4.90;;;8.70;99.90;;;7.68;100.00;97608.22;5010637;28;20405;-70
2023/03/20 03:04:28;;;;;;;8.85;4.97;;;8.70;99.90;;;7.70;100.00;97610.63;5010831;28;20400;-72
2023/03/20 03:06:58;;;;;;;11.50;5.05;;;8.70;99.90;;;7.74;100.00;97612.59;5010099;28;20405;-72
2023/03/20 03:09:31;;;;;;;9.55;5.40;;;8.70;99.90;;;7.72;100.00;97616.50;5010662;28;20416;-70
2023/03/20 03:12:02;;;;;;;6.90;4.55;;;8.70;99.90;;;7.68;100.00;97615.31;5010427;28;20463;-71
2023/03/20 03:14:35;;;;;;;8.20;4.65;;;8.70;99.90;;;7.70;100.00;97626.44;5010637;28;20404;-71
2023/03/20 03:17:05;;;;;;;7.55;4.53;;;8.70;99.90;;;7.73;100.00;97613.63;5010652;28;20417;-71
2023/03/20 03:19:33;;;;;;;7.67;4.37;;;8.70;99.90;;;7.76;100.00;97617.63;5010507;28;20767;-71
2023/03/20 03:21:59;;;;;;;7.53;4.57;;;8.80;99.90;;;7.80;100.00;97625.91;4992669;28;20503;-71
2023/03/20 03:24:31;;;;;;;8.60;4.80;;;8.80;99.90;;;7.81;100.00;97622.25;5010630;28;20449;-71
2023/03/20 03:27:02;;;;;;;8.85;4.50;;;8.80;99.90;;;7.81;100.00;97624.88;5010583;28;20409;-72
2023/03/20 03:29:34;;;;;;;5.53;4.15;;;8.80;99.90;;;7.83;100.00;97630.69;5010456;28;20408;-71
2023/03/20 03:32:05;;;;;;;9.05;5.07;;;8.80;99.90;;;7.84;100.00;97632.31;5010222;28;20400;-71
2023/03/20 03:34:32;;;;;;;9.07;4.78;;;8.90;99.90;;;7.81;100.00;97628.31;5010565;28;20407;-71
2023/03/20 03:37:05;;;;;;;8.48;4.40;;;8.80;99.90;;;7.81;100.00;97630.16;5010337;28;20423;-71
2023/03/20 03:39:39;;;;;;;9.18;4.70;;;8.80;99.90;;;7.78;100.00;97632.19;4992657;28;20772;-71
2023/03/20 03:42:10;;;;;;;7.05;3.90;;;8.80;99.90;;;7.78;100.00;97634.03;5010219;28;20909;-71
2023/03/20 03:44:44;;;;;;;6.32;4.15;;;8.80;99.90;;;7.78;100.00;97641.94;5010359;28;20440;-71
2023/03/20 03:47:15;;;;;;;7.77;4.70;;;8.80;99.90;;;7.76;100.00;97638.72;5010424;28;20487;-71
2023/03/20 03:49:48;;;;;;;7.40;4.00;;;8.80;99.90;;;7.74;100.00;97638.16;5010331;28;20899;-71
2023/03/20 03:52:19;;;;;;;8.23;4.10;;;8.70;99.90;;;7.76;100.00;97643.97;5010328;28;20613;-71
2023/03/20 03:54:52;;;;;;;9.25;4.15;;;8.80;99.90;;;7.76;100.00;97639.53;5010324;28;20401;-71
2023/03/20 03:57:26;;;;;;;6.23;4.13;;;8.80;99.90;;;7.79;100.00;97638.28;5010166;28;20416;-71
2023/03/20 03:59:54;;;;;;;7.68;4.70;;;8.80;99.90;;;7.75;100.00;97642.38;5010334;28;20401;-71
2023/03/20 04:02:22;;;;;;;6.18;4.00;;;8.70;99.90;;;7.73;100.00;97644.44;5009967;28;20794;-71
2023/03/20 04:04:52;;;;;;;6.88;4.30;;;8.70;99.90;;;7.72;100.00;97642.84;5060585;22;20440;-76
2023/03/20 04:07:19;;;;;;;8.20;4.28;;;8.70;99.90;;;7.71;100.00;97644.69;5049747;28;20398;-76
2023/03/20 04:09:47;;;;;;;6.77;4.33;;;8.70;99.90;;;7.69;100.00;97651.19;5049782;28;20521;-78
2023/03/20 04:12:33;;;;;;;8.47;4.30;;;8.70;99.90;;;7.65;100.00;97644.78;5049428;28;20414;-78
2023/03/20 04:14:59;;;;;;;6.95;4.00;;;8.70;99.90;;;7.65;100.00;97658.75;5029770;28;20396;-78
2023/03/20 04:17:24;;;;;;;7.97;4.43;;;8.70;99.90;;;7.66;100.00;97660.38;5030463;28;20423;-78
2023/03/20 04:19:50;;;;;;;8.40;5.00;;;8.70;99.90;;;7.68;100.00;97655.66;5033397;28;20461;-78
2023/03/20 04:22:16;;;;;;;10.98;4.90;;;8.70;99.90;;;7.64;100.00;97651.88;5033052;28;20407;-78
2023/03/20 04:24:42;;;;;;;7.30;4.07;;;8.70;99.90;;;7.61;100.00;97654.94;5033239;28;20410;-78
2023/03/20 04:27:10;;;;;;;8.30;4.33;;;8.60;99.90;;;7.59;100.00;97650.94;5033256;28;20484;-78
2023/03/20 04:29:36;;;;;;;7.65;4.70;;;8.60;99.90;;;7.60;100.00;97644.63;5033222;28;20399;-77
2023/03/20 04:32:02;;;;;;;7.33;4.63;;;8.60;99.90;;;7.58;100.00;97642.25;5032887;28;20406;-77
2023/03/20 04:34:28;;;;;;;8.27;4.45;;;8.60;99.90;;;7.57;100.00;97642.47;5033018;28;20406;-77
2023/03/20 04:36:54;;;;;;;8.85;4.63;;;8.60;99.90;;;7.55;100.00;97640.06;5032983;28;20795;-77
2023/03/20 04:39:20;;;;;;;7.87;4.47;;;8.60;99.90;;;7.52;100.00;97632.59;5033032;28;20411;-78
2023/03/20 04:41:46;;;;;;;6.93;4.10;;;8.60;99.90;;;7.48;100.00;97634.06;5032635;28;20938;-78
2023/03/20 04:44:14;;;;;;;8.20;4.88;;;8.50;99.90;;;7.47;100.00;97640.38;5032851;28;20403;-78
2023/03/20 04:46:39;;;;;;;7.47;4.60;;;8.50;99.90;;;7.36;100.00;97636.69;5015184;28;20415;-78
2023/03/20 04:49:05;;;;;;;8.10;4.05;;;8.40;99.90;;;7.33;100.00;97641.59;5032812;28;20450;-78
2023/03/20 04:51:31;;;;;;;8.18;4.70;;;8.40;99.90;;;7.31;100.00;97641.81;5032423;28;20422;-78
2023/03/20 04:53:57;;;;;;;10.52;5.03;;;8.40;99.90;;;7.32;100.00;97647.88;5032810;28;20438;-78
2023/03/20 04:56:23;;;;;;;9.35;4.80;;;8.40;99.90;;;7.29;100.00;97646.47;5032692;28;20403;-78
2023/03/20 04:58:49;;;;;;;10.70;5.20;;;8.30;99.90;;;7.31;100.00;97654.97;5032505;28;20434;-78
2023/03/20 05:01:16;;;;;;;8.07;4.40;;;8.30;99.90;;;7.21;100.00;97657.34;5032566;28;20518;-78
2023/03/20 05:03:42;;;;;;;10.55;4.93;;;8.20;99.90;;;7.28;100.00;97652.00;5032129;28;20486;-78
2023/03/20 05:06:09;;;;;;;11.82;5.75;;;8.30;99.90;;;7.23;100.00;97657.91;5014807;28;20910;-78
2023/03/20 05:08:35;;;;;;;11.25;4.78;;;8.30;99.90;;;7.16;100.00;97662.47;5014708;28;20399;-78
2023/03/20 05:11:02;;;;;;;9.65;5.60;;;8.20;99.90;;;7.23;100.00;97663.19;5032410;28;20489;-78
2023/03/20 05:13:28;;;;;;;12.50;5.07;;;8.20;99.90;;;7.20;100.00;97663.63;5032192;28;20486;-78
2023/03/20 05:15:53;;;;;;;11.05;5.18;;;8.30;99.90;;;7.23;100.00;97665.00;5036371;28;20671;-77
2023/03/20 05:18:21;;;;;;;13.27;5.97;;;8.30;99.90;;;7.31;100.00;97669.97;5032499;28;20760;-78
2023/03/20 05:20:48;;;;;;;10.53;4.63;;;8.30;99.90;;;7.26;100.00;97673.28;5032236;28;20413;-77
2023/03/20 05:23:14;;;;;;;11.30;4.93;;;8.30;99.90;;;7.28;100.00;97681.75;5031988;28;20410;-71
2023/03/20 05:25:40;;;;;;;8.43;4.80;;;8.30;99.90;;;7.29;100.00;97672.81;5031976;28;20403;-70
2023/03/20 05:28:06;;;;;;;12.48;5.32;;;8.30;99.90;;;7.33;100.00;97681.88;5014258;28;20437;-72
2023/03/20 05:30:32;;;;;;;12.65;5.25;;;8.30;99.90;;;7.28;100.00;97676.50;5030599;28;20395;-71
2023/03/20 05:32:58;;;;;;;8.90;4.83;;;8.30;99.90;;;7.22;100.00;97674.72;5031657;28;20400;-70
2023/03/20 05:35:25;;;;;;;10.38;5.05;;;8.30;99.90;;;7.25;100.00;97666.41;5031851;28;20485;-70
2023/03/20 05:37:51;;;;;;;13.98;5.63;;;8.30;99.90;;;7.28;100.00;97667.78;5031850;28;20419;-70
2023/03/20 05:40:18;;;;;;;8.10;4.47;;;8.30;99.90;;;7.29;100.00;97667.53;5031774;28;20453;-70
2023/03/20 05:42:44;;;;;;;4.90;3.92;;;8.30;99.90;;;7.33;100.00;97667.91;5031302;28;20403;-70
2023/03/20 05:45:10;;;;;;;9.23;4.68;;;8.40;99.90;;;7.37;100.00;97666.44;5031730;28;20407;-70
2023/03/20 05:47:36;;;;;;;8.50;4.72;;;8.40;99.90;;;7.37;100.00;97667.25;5031673;28;20407;-70
2023/03/20 05:50:02;;;;;;;8.20;4.53;;;8.40;99.90;;;7.42;100.00;97673.69;5031725;28;20403;-70
2023/03/20 05:52:30;;;;;;;12.93;5.45;;;8.40;99.90;;;7.45;100.00;97675.84;5031412;28;20750;-70
2023/03/20 05:54:56;;;;;;;8.25;4.47;;;8.50;99.90;;;7.46;100.00;97682.72;5031572;28;20399;-70
2023/03/20 05:57:22;;;;;;;8.23;4.57;;;8.50;99.90;;;7.44;100.00;97690.06;5013623;28;20437;-70
2023/03/20 05:59:48;;;;;;;9.57;4.88;;;8.50;99.90;;;7.45;100.00;97689.00;5031441;28;20464;-71
2023/03/20 06:02:14;;;;;;;8.20;4.70;;;8.50;99.90;;;7.46;100.00;97696.69;5030907;28;20403;-70
2023/03/20 06:04:40;;;;;;;6.90;4.30;;;8.50;99.90;;;7.50;100.00;97700.50;5030045;28;20462;-70
2023/03/20 06:07:06;;;;;;;10.73;5.60;;;8.50;99.90;;;7.57;100.00;97697.78;5029744;28;20427;-70
2023/03/20 06:09:33;;;;;;;11.80;6.27;;;8.50;99.90;;;7.51;100.00;97699.50;5031493;28;20475;-70
2023/03/20 06:11:59;;;;;;;7.28;4.60;;;8.40;99.90;;;7.46;100.00;97698.53;5030769;28;20494;-70
2023/03/20 06:14:25;;;;;;;9.53;5.20;;;8.40;99.90;;;7.51;100.00;97701.31;5031158;28;20508;-70
2023/03/20 06:16:52;;;;;;;9.07;5.05;;;8.50;99.90;;;7.56;100.00;97701.44;5013463;28;20490;-70
2023/03/20 06:19:19;;;;;;;10.27;5.50;;;8.60;99.90;;;7.64;100.00;97704.56;5031057;28;20411;-71
2023/03/20 06:21:45;;;;;;;12.65;5.80;;;8.60;99.90;;;7.69;100.00;97707.31;5030836;28;20433;-70
2023/03/20 06:24:11;;;;;;;11.40;5.57;;;8.70;99.90;;;7.75;100.00;97701.16;5030954;28;20808;-71
2023/03/20 06:26:38;;;;;;;9.98;5.15;;;8.80;99.90;;;7.81;100.00;97702.09;5030949;28;20407;-71
2023/03/20 06:29:05;;;;;;;10.43;4.70;;;8.80;99.90;;;7.86;100.00;97693.50;5031030;28;20410;-71
2023/03/20 06:31:30;;;;;;;9.57;4.50;;;8.80;99.90;;;7.91;100.00;97694.44;5030641;28;20457;-70
2023/03/20 06:33:56;;;;;;;7.85;4.55;;;8.90;99.90;;;7.97;100.00;97698.78;5030813;28;20427;-71
2023/03/20 06:36:23;;;;;;;9.40;4.70;;;8.90;99.90;;;8.03;100.00;97694.47;5030805;28;20407;-71
2023/03/20 06:38:48;;;;;;;9.75;5.07;;;9.00;99.90;;;8.08;100.00;97698.03;5030688;28;20419;-70
2023/03/20 06:41:14;;;;;;;10.43;5.17;;;9.00;99.90;;;8.13;100.00;97692.88;5030616;28;20407;-70
2023/03/20 06:43:43;;;;;;;12.27;5.32;;;9.10;99.90;;;8.16;100.00;97691.63;5030575;28;20399;-71
2023/03/20 06:46:09;;;;;;;11.95;5.43;;;9.10;99.90;;;8.19;100.00;97696.44;5030733;28;20413;-71
2023/03/20 06:48:35;;;;;;;18.33;7.25;;;9.20;99.90;;;8.21;100.00;97691.72;5030454;28;20406;-71
2023/03/20 06:51:01;;;;;;;17.67;6.47;;;9.20;99.90;;;8.28;100.00;97694.25;5030524;28;20501;-71
2023/03/20 06:53:27;;;;;;;15.37;6.63;;;9.20;99.90;;;8.37;100.00;97703.47;5030254;28;20493;-71
2023/03/20 06:55:53;;;;;;;14.00;6.95;;;9.30;99.90;;;8.47;100.00;97696.59;5030508;28;20497;-70
2023/03/20 06:58:19;;;;;;;17.13;6.70;;;9.40;99.90;;;8.59;100.00;97693.94;5030388;28;20430;-71
2023/03/20 07:00:46;;;;;;;12.82;6.32;;;9.50;99.90;;;8.71;100.00;97694.75;5030474;28;20403;-71
2023/03/20 07:03:13;;;;;;;19.17;8.32;;;9.60;99.90;;;8.83;100.00;97695.53;5030030;28;20768;-71
2023/03/20 07:05:39;;;;;;;17.33;7.45;;;9.70;99.90;;;8.91;100.00;97702.28;5030404;28;21092;-71
2023/03/20 07:08:06;;;;;;;12.05;5.97;;;9.80;99.90;;;9.06;100.00;97699.16;5030443;28;20407;-71
2023/03/20 07:10:33;;;;;;;13.52;6.07;;;9.90;99.90;;;9.25;100.00;97706.69;5030361;28;20414;-71
2023/03/20 07:12:59;;;;;;;19.98;7.68;;;10.10;99.90;;;9.35;100.00;97718.47;5030103;28;20885;-71
2023/03/20 07:15:25;;;;;;;18.50;7.45;;;10.30;99.90;;;9.45;100.00;97718.69;5030384;28;20395;-71
2023/03/20 07:17:53;;;;;;;17.10;7.07;;;10.40;99.90;;;9.43;100.00;97720.75;5030242;28;20415;-71
2023/03/20 07:20:19;;;;;;;17.02;6.90;;;10.30;99.90;;;9.42;100.00;97714.66;5030160;28;20415;-71
2023/03/20 07:22:47;;;;;;;17.55;7.20;;;10.30;99.90;;;9.45;100.00;97719.50;5029955;28;20407;-71
2023/03/20 07:25:14;;;;;;;13.18;6.57;;;10.30;99.90;;;9.38;100.00;97725.94;5012252;28;20403;-71
2023/03/20 07:27:40;;;;;;;17.53;6.63;;;10.20;99.90;;;9.33;100.00;97734.56;5030278;28;20391;-71
2023/03/20 07:30:07;;;;;;;13.30;6.78;;;10.20;99.90;;;9.29;100.00;97730.81;5030177;28;20406;-71
2023/03/20 07:32:34;;;;;;;14.25;7.00;;;10.10;99.90;;;9.10;100.00;97734.63;5029852;28;20419;-71
2023/03/20 07:35:01;;;;;;;15.75;6.50;;;10.00;99.90;;;9.04;100.00;97730.28;5030128;28;20406;-71
2023/03/20 07:37:27;;;;;;;17.13;7.47;;;9.90;99.90;;;9.02;100.00;97730.50;5029110;28;20429;-71
2023/03/20 07:39:53;;;;;;;13.55;6.78;;;9.90;99.90;;;9.12;100.00;97727.28;5026581;28;20497;-70
2023/03/20 07:42:19;;;;;;;13.60;6.47;;;10.00;99.90;;;9.28;100.00;97730.00;5027537;28;20458;-70
2023/03/20 07:44:45;;;;;;;14.65;6.75;;;10.10;99.90;;;9.39;100.00;97731.00;5026734;28;20418;-70
2023/03/20 07:47:11;;;;;;;16.00;6.95;;;10.30;99.90;;;9.41;100.00;97730.75;5033689;28;20450;-70
2023/03/20 07:49:36;;;;;;;14.60;6.88;;;10.30;99.90;;;9.43;100.00;97729.50;5031191;28;20448;-70
2023/03/20 07:52:04;;;;;;;12.90;6.65;;;10.30;99.90;;;9.55;100.00;97726.78;5039694;28;20403;-70
2023/03/20 07:54:30;;;;;;;15.45;7.00;;;10.40;99.90;;;9.53;100.00;97731.53;5031305;28;20506;-71
2023/03/20 07:56:56;;;;;;;13.82;6.03;;;10.40;99.90;;;9.64;100.00;97731.47;5044967;28;20489;-71
2023/03/20 07:59:22;;;;;;;12.90;6.03;;;10.50;99.90;;;9.75;100.00;97735.13;5022986;28;20752;-70
2023/03/20 08:01:48;;;;;;;15.00;6.50;;;10.60;99.90;;;9.76;100.00;97731.44;5041969;28;20452;-70
2023/03/20 08:04:18;;;;;;;13.02;5.80;;;10.60;99.90;;;9.78;100.00;97731.19;5041924;28;20489;-71
2023/03/20 08:06:44;;;;;;;13.23;5.95;;;10.60;99.90;;;9.91;100.00;97737.00;5042784;28;20408;-70
2023/03/20 08:09:11;;;;;;;11.13;5.88;;;10.70;99.90;;;9.98;100.00;97732.34;5044142;28;20398;-70
2023/03/20 08:11:37;;;;;;;11.48;5.85;;;10.80;99.90;;;9.85;100.00;97735.28;5042378;28;20406;-70
2023/03/20 08:14:03;;;;;;;7.38;4.70;;;10.70;99.90;;;9.44;100.00;97732.94;5042577;28;20476;-70
2023/03/20 08:16:29;;;;;;;8.77;5.13;;;10.20;99.90;;;9.46;100.00;97731.69;5043947;28;20406;-70
2023/03/20 08:19:00;;;;;;;8.90;5.25;;;10.30;99.90;;;9.32;100.00;97731.13;5035907;28;20430;-70
2023/03/20 08:21:26;;;;;;;8.90;5.40;;;10.20;99.90;;;9.22;100.00;97728.28;5033203;28;20835;-70
2023/03/20 08:23:52;;;;;;;9.27;5.40;;;10.10;99.90;;;9.23;100.00;97731.75;5033180;28;20403;-70
2023/03/20 08:26:19;;;;;;;12.83;6.13;;;10.10;99.90;;;9.33;100.00;97738.00;5033195;28;20781;-70
2023/03/20 08:28:45;;;;;;;8.95;5.65;;;10.20;99.90;;;9.42;100.00;97738.44;5033290;28;20403;-70
2023/03/20 08:31:11;;;;;;;9.87;4.80;;;10.30;99.90;;;9.61;100.00;97747.81;5033156;28;20487;-71
2023/03/20 08:33:37;;;;;;;11.07;5.27;;;10.40;99.90;;;9.85;100.00;97743.22;5032852;28;20786;-70
2023/03/20 08:36:04;;;;;;;9.05;4.97;;;10.60;99.90;;;10.02;100.00;97743.25;5033062;28;20461;-71
2023/03/20 08:38:29;;;;;;;8.00;4.75;;;10.80;99.90;;;10.32;100.00;97737.69;5032935;28;20415;-71
2023/03/20 08:40:55;;;;;;;10.15;4.90;;;11.10;99.90;;;10.30;100.00;97742.44;5032887;28;20411;-71
2023/03/20 08:43:23;;;;;;;6.60;3.70;;;11.20;99.90;;;10.11;100.00;97736.53;5038512;28;20497;-71
2023/03/20 08:45:49;;;;;;;5.55;3.50;;;11.00;99.90;;;10.00;100.00;97735.53;5049667;28;20402;-71
2023/03/20 08:48:15;;;;;;;6.05;3.20;;;10.80;99.90;;;9.68;100.00;97735.25;5052724;28;20401;-71
2023/03/20 08:50:41;;;;;;;6.70;3.90;;;10.50;99.90;;;9.90;100.00;97732.75;5052610;28;20401;-71
2023/03/20 08:53:07;;;;;;;7.50;4.33;;;10.70;99.90;;;10.22;100.00;97737.53;5030869;28;20496;-75
2023/03/20 08:55:33;;;;;;;9.70;3.95;;;11.00;99.90;;;9.98;100.00;97731.56;5031015;28;20403;-71
2023/03/20 08:57:59;;;;;;;7.63;3.95;;;10.80;99.90;;;10.08;100.00;97734.34;5032059;28;20465;-71
2023/03/20 09:00:26;;;;;;;5.93;4.17;;;10.90;99.90;;;10.37;100.00;97733.31;5032621;28;20461;-71
2023/03/20 09:02:52;;;;;;;8.75;5.03;;;11.10;99.90;;;10.67;100.00;97737.47;5032041;28;20422;-72
2023/03/20 09:05:18;;;;;;;8.32;5.15;;;11.50;99.90;;;10.71;100.00;97736.72;5030152;28;20419;-72
2023/03/20 09:07:44;;;;;;;5.73;3.90;;;11.60;99.90;;;10.93;100.00;97735.94;5032382;28;20399;-72
2023/03/20 09:10:11;;;;;;;4.28;3.50;;;11.70;99.90;;;10.88;100.00;97738.53;5032394;28;20498;-72
2023/03/20 09:12:38;;;;;;;4.88;3.30;;;11.60;99.90;;;10.84;100.00;97736.38;5032149;28;20497;-72
2023/03/20 09:15:06;;;;;;;4.90;3.60;;;11.70;99.90;;;10.80;100.00;97740.56;5032337;28;20408;-71
2023/03/20 09:17:33;;;;;;;4.53;3.03;;;11.70;99.90;;;10.99;100.00;97737.63;5032081;28;20415;-72
2023/03/20 09:19:59;;;;;;;4.37;3.30;;;11.70;99.90;;;11.06;100.00;97741.69;5031748;28;20482;-73
2023/03/20 09:22:25;;;;;;;3.88;2.67;;;12.00;99.90;;;10.99;100.00;97741.06;5031710;28;20446;-73
2023/03/20 09:24:51;;;;;;;3.83;2.80;;;11.80;99.90;;;10.79;100.00;97751.38;5032062;28;20489;-72
2023/03/20 09:27:17;;;;;;;4.00;2.85;;;11.60;99.90;;;10.93;100.00;97749.19;5032038;28;20429;-72
2023/03/20 09:29:43;;;;;;;5.85;4.13;;;11.60;99.90;;;11.46;100.00;97744.06;5032050;28;20437;-72
2023/03/20 09:32:11;;;;;;;3.67;2.95;;;12.10;99.90;;;11.39;100.00;97740.78;5031762;28;20433;-72
2023/03/20 09:34:38;;;;;;;5.38;3.47;;;12.10;99.90;;;11.43;100.00;97735.78;5014109;28;20403;-71
2023/03/20 09:37:05;;;;;;;4.10;3.13;;;12.10;99.90;;;11.67;100.00;97739.78;5031842;28;20411;-71
2023/03/20 09:39:32;;;;;;;4.05;3.20;;;12.40;99.90;;;11.90;100.00;97742.16;5031210;28;20399;-71
2023/03/20 09:42:05;;;;;;;3.45;2.80;;;12.60;99.90;;;11.83;100.00;97732.81;5023775;28;20448;-72
2023/03/20 09:44:50;;;;;;;3.67;3.00;;;12.50;99.90;;;11.97;100.00;97740.13;5013433;28;20415;-72
2023/03/20 09:47:25;;;;;;;4.28;3.58;;;12.60;99.90;;;11.83;100.00;97738.91;5028408;28;20419;-72
2023/03/20 09:50:08;;;;;;;3.88;2.97;;;12.50;99.90;;;12.02;100.00;97740.19;5025904;28;20415;-73
2023/03/20 09:52:38;;;;;;;4.07;3.30;;;12.70;99.90;;;12.24;100.00;97736.66;5022163;28;20470;-72
2023/03/20 09:55:13;;;;;;;3.08;2.47;;;13.00;99.90;;;12.48;100.00;97748.50;5023941;28;20419;-72
2023/03/20 09:57:42;;;;;;;5.72;3.22;;;13.10;99.90;;;12.47;100.00;97738.97;5025298;28;20430;-72
2023/03/20 10:00:15;;;;;;;3.60;2.80;;;13.30;99.90;;;12.50;100.00;97741.09;5029181;28;20485;-73
2023/03/20 10:02:51;;;;;;;3.70;2.90;;;13.20;99.90;;;12.58;100.00;97750.44;5027677;28;20481;-72
2023/03/20 10:05:23;;;;;;;4.60;3.15;;;13.30;99.90;;;12.78;100.00;97746.06;5044542;22;20439;-72
2023/03/20 10:07:50;;;;;;;4.83;3.43;;;13.40;99.90;;;12.60;100.00;97748.34;5043160;28;20423;-73
2023/03/20 10:10:19;;;;;;;5.82;3.10;;;13.40;99.90;;;12.47;100.00;97743.47;5039814;28;20950;-73
2023/03/20 10:13:05;;;;;;;4.57;2.93;;;13.20;99.90;;;12.44;100.00;97739.47;5033841;28;20442;-75
2023/03/20 10:15:45;;;;;;;3.37;2.87;;;13.20;99.90;;;12.46;100.00;97739.22;5040024;28;20496;-74
2023/03/20 10:18:21;;;;;;;3.90;2.50;;;13.30;99.90;;;12.44;100.00;97749.28;5055999;28;20483;-73
2023/03/20 10:20:57;;;;;;;4.22;2.67;;;13.20;99.90;;;12.34;100.00;97745.47;5048345;28;20417;-73
2023/03/20 10:23:34;;;;;;;3.92;2.70;;;13.20;99.90;;;12.15;100.00;97751.44;5050541;28;20428;-73
2023/03/20 10:26:05;;;;;;;3.40;2.80;;;12.90;99.90;;;12.04;100.00;97753.16;5043733;28;20504;-73
2023/03/20 10:28:38;;;;;;;4.40;2.60;;;12.90;99.90;;;11.91;100.00;97758.88;5038058;28;20846;-76